South Deerfield, Massachusetts
Current Conditions -  °F | °C
As of 8:52 PM on Friday 24 Oct 2014 (Local Time) from KORE Reporting Station
Overcast Overcast  
Wind Chill: 44°   Ceiling: 2300
Heat Index: 49°   Visibility: 10mi
Dew Point: 41°   Wind: 12mph
Humidity: 74%   Direction: 330°NNW
Pressure: 29.77"   Gusts: NA
Location:  42.48°N, 72.61°W
Report Text: KORE 250052Z AUTO 33010KT 10SM OVC023 09/05 A2977 RMK AO2 SLP083 T00940050
Loading
Personal Weather Stations






























Interactive Weather Map
Tropical Storm Tracking
New forecast layout! Learn more

10-Day Weather Forecast

Advertisements
Track Severe Weather on mobile